sensor_id;sensor_type;location;lat;lon;timestamp;pressure;altitude;pressure_sealevel;temperature;humidity
61963;BME280;47927;42.646;23.096;2023-03-23T00:01:25;92085.81;;;5.73;60.93
61963;BME280;47927;42.646;23.096;2023-03-23T00:03:53;92090.41;;;5.80;60.70
61963;BME280;47927;42.646;23.096;2023-03-23T00:06:23;92088.91;;;5.79;60.80
61963;BME280;47927;42.646;23.096;2023-03-23T00:08:51;92091.09;;;5.48;62.84
61963;BME280;47927;42.646;23.096;2023-03-23T00:11:26;92083.78;;;5.38;64.38
61963;BME280;47927;42.646;23.096;2023-03-23T00:13:56;92087.34;;;5.74;63.17
61963;BME280;47927;42.646;23.096;2023-03-23T00:16:27;92073.09;;;5.80;62.22
61963;BME280;47927;42.646;23.096;2023-03-23T00:19:02;92078.31;;;5.96;61.74
61963;BME280;47927;42.646;23.096;2023-03-23T00:21:34;92081.31;;;5.98;60.64
61963;BME280;47927;42.646;23.096;2023-03-23T00:24:14;92084.88;;;5.93;59.02
61963;BME280;47927;42.646;23.096;2023-03-23T00:26:43;92082.41;;;5.69;59.52
61963;BME280;47927;42.646;23.096;2023-03-23T00:29:16;92077.38;;;5.60;60.43
61963;BME280;47927;42.646;23.096;2023-03-23T00:31:43;92079.53;;;5.58;60.42
61963;BME280;47927;42.646;23.096;2023-03-23T00:34:13;92057.94;;;5.51;60.63
61963;BME280;47927;42.646;23.096;2023-03-23T00:36:43;92084.13;;;5.65;60.76
61963;BME280;47927;42.646;23.096;2023-03-23T00:39:11;92080.31;;;5.75;60.14
61963;BME280;47927;42.646;23.096;2023-03-23T00:41:37;92076.75;;;5.51;60.27
61963;BME280;47927;42.646;23.096;2023-03-23T00:44:03;92082.09;;;5.30;61.42
61963;BME280;47927;42.646;23.096;2023-03-23T00:46:29;92087.28;;;5.30;61.45
61963;BME280;47927;42.646;23.096;2023-03-23T00:48:56;92085.41;;;5.43;60.15
61963;BME280;47927;42.646;23.096;2023-03-23T00:51:23;92080.56;;;5.41;60.03
61963;BME280;47927;42.646;23.096;2023-03-23T00:53:49;92053.59;;;5.27;59.00
61963;BME280;47927;42.646;23.096;2023-03-23T00:56:15;92061.56;;;5.21;60.09
61963;BME280;47927;42.646;23.096;2023-03-23T00:58:41;92077.88;;;5.38;60.63
61963;BME280;47927;42.646;23.096;2023-03-23T01:01:07;92077.56;;;5.39;59.64
61963;BME280;47927;42.646;23.096;2023-03-23T01:03:33;92081.31;;;5.42;59.11
61963;BME280;47927;42.646;23.096;2023-03-23T01:06:10;92077.16;;;5.25;59.96
61963;BME280;47927;42.646;23.096;2023-03-23T01:08:41;92056.41;;;4.56;62.64
61963;BME280;47927;42.646;23.096;2023-03-23T01:11:15;92070.25;;;4.89;62.69
61963;BME280;47927;42.646;23.096;2023-03-23T01:13:42;92056.53;;;5.13;61.45
61963;BME280;47927;42.646;23.096;2023-03-23T01:16:08;92048.97;;;5.20;61.23
61963;BME280;47927;42.646;23.096;2023-03-23T01:18:35;92044.84;;;5.31;61.03
61963;BME280;47927;42.646;23.096;2023-03-23T01:21:18;92064.88;;;5.34;61.20
61963;BME280;47927;42.646;23.096;2023-03-23T01:23:44;92063.75;;;5.47;60.88
61963;BME280;47927;42.646;23.096;2023-03-23T01:26:13;92051.91;;;5.46;60.08
61963;BME280;47927;42.646;23.096;2023-03-23T01:28:39;92061.44;;;5.58;60.22
61963;BME280;47927;42.646;23.096;2023-03-23T01:31:11;92036.94;;;5.24;61.70
61963;BME280;47927;42.646;23.096;2023-03-23T01:33:38;92037.81;;;5.16;62.45
61963;BME280;47927;42.646;23.096;2023-03-23T01:36:07;92055.22;;;5.47;62.10
61963;BME280;47927;42.646;23.096;2023-03-23T01:38:35;92052.09;;;5.54;61.84
61963;BME280;47927;42.646;23.096;2023-03-23T01:41:01;92052.31;;;5.20;63.16
61963;BME280;47927;42.646;23.096;2023-03-23T01:43:27;92049.66;;;5.45;62.64
61963;BME280;47927;42.646;23.096;2023-03-23T01:45:53;92052.84;;;5.54;62.13
61963;BME280;47927;42.646;23.096;2023-03-23T01:48:26;92047.28;;;5.68;59.96
61963;BME280;47927;42.646;23.096;2023-03-23T01:51:28;92051.25;;;5.49;61.32
61963;BME280;47927;42.646;23.096;2023-03-23T01:53:57;92052.84;;;5.54;62.15
61963;BME280;47927;42.646;23.096;2023-03-23T01:56:30;92053.75;;;5.62;61.27
61963;BME280;47927;42.646;23.096;2023-03-23T01:58:59;92043.78;;;5.60;60.51
61963;BME280;47927;42.646;23.096;2023-03-23T02:01:26;92061.88;;;5.76;59.78
61963;BME280;47927;42.646;23.096;2023-03-23T02:04:14;92063.63;;;5.72;60.11
61963;BME280;47927;42.646;23.096;2023-03-23T02:06:43;92047.34;;;5.56;61.50
61963;BME280;47927;42.646;23.096;2023-03-23T02:09:17;92061.47;;;5.74;63.89
61963;BME280;47927;42.646;23.096;2023-03-23T02:11:46;92052.63;;;5.75;67.63
61963;BME280;47927;42.646;23.096;2023-03-23T02:14:13;92039.56;;;5.56;71.08
61963;BME280;47927;42.646;23.096;2023-03-23T02:17:06;92054.09;;;6.68;69.61
61963;BME280;47927;42.646;23.096;2023-03-23T02:22:32;92049.13;;;7.33;64.80
61963;BME280;47927;42.646;23.096;2023-03-23T02:28:03;92051.25;;;7.08;63.10
61963;BME280;47927;42.646;23.096;2023-03-23T02:36:12;92065.06;;;6.80;61.31
61963;BME280;47927;42.646;23.096;2023-03-23T02:38:53;92064.75;;;6.66;60.62
61963;BME280;47927;42.646;23.096;2023-03-23T02:41:23;92067.44;;;6.54;61.73
61963;BME280;47927;42.646;23.096;2023-03-23T02:43:50;92056.69;;;6.36;63.38
61963;BME280;47927;42.646;23.096;2023-03-23T02:46:17;92068.53;;;6.53;61.59
61963;BME280;47927;42.646;23.096;2023-03-23T02:48:46;92065.38;;;6.44;62.10
61963;BME280;47927;42.646;23.096;2023-03-23T02:51:15;92048.94;;;6.36;61.92
61963;BME280;47927;42.646;23.096;2023-03-23T02:53:43;92071.22;;;6.41;60.73
61963;BME280;47927;42.646;23.096;2023-03-23T02:56:11;92070.81;;;6.38;59.86
61963;BME280;47927;42.646;23.096;2023-03-23T02:58:37;92070.72;;;6.35;60.05
61963;BME280;47927;42.646;23.096;2023-03-23T03:04:09;92072.91;;;6.17;59.62
61963;BME280;47927;42.646;23.096;2023-03-23T03:09:31;92068.88;;;6.04;59.37
61963;BME280;47927;42.646;23.096;2023-03-23T03:18:10;92083.59;;;5.87;60.80
61963;BME280;47927;42.646;23.096;2023-03-23T03:20:43;92082.50;;;5.88;60.74
61963;BME280;47927;42.646;23.096;2023-03-23T03:23:13;92078.75;;;5.86;60.45
61963;BME280;47927;42.646;23.096;2023-03-23T03:25:42;92076.50;;;5.84;59.52
61963;BME280;47927;42.646;23.096;2023-03-23T03:28:17;92084.50;;;5.79;59.85
61963;BME280;47927;42.646;23.096;2023-03-23T03:30:55;92068.97;;;5.63;59.69
61963;BME280;47927;42.646;23.096;2023-03-23T03:33:23;92087.22;;;5.70;59.54
61963;BME280;47927;42.646;23.096;2023-03-23T03:35:55;92090.06;;;5.65;59.25
61963;BME280;47927;42.646;23.096;2023-03-23T03:38:21;92093.97;;;5.59;59.59
61963;BME280;47927;42.646;23.096;2023-03-23T03:40:49;92071.03;;;5.30;59.62
61963;BME280;47927;42.646;23.096;2023-03-23T03:43:16;92101.19;;;5.54;60.71
61963;BME280;47927;42.646;23.096;2023-03-23T03:45:41;92103.22;;;5.60;61.67
61963;BME280;47927;42.646;23.096;2023-03-23T03:48:07;92096.16;;;5.45;61.53
61963;BME280;47927;42.646;23.096;2023-03-23T03:50:33;92094.38;;;5.33;62.05
61963;BME280;47927;42.646;23.096;2023-03-23T03:52:59;92098.88;;;5.36;60.94
61963;BME280;47927;42.646;23.096;2023-03-23T03:55:25;92101.00;;;5.46;61.27
61963;BME280;47927;42.646;23.096;2023-03-23T03:57:54;92099.28;;;5.51;60.86
61963;BME280;47927;42.646;23.096;2023-03-23T04:00:37;92092.66;;;5.25;60.64
61963;BME280;47927;42.646;23.096;2023-03-23T04:03:04;92097.50;;;5.27;60.65
61963;BME280;47927;42.646;23.096;2023-03-23T04:05:42;92091.03;;;5.33;61.57
61963;BME280;47927;42.646;23.096;2023-03-23T04:08:11;92095.72;;;5.43;61.74
61963;BME280;47927;42.646;23.096;2023-03-23T04:10:37;92096.03;;;5.54;61.60
61963;BME280;47927;42.646;23.096;2023-03-23T04:13:03;92098.34;;;5.31;62.27
61963;BME280;47927;42.646;23.096;2023-03-23T04:15:30;92091.00;;;5.45;61.21
61963;BME280;47927;42.646;23.096;2023-03-23T04:17:56;92091.13;;;5.36;59.76
61963;BME280;47927;42.646;23.096;2023-03-23T04:20:23;92089.25;;;5.21;61.30
61963;BME280;47927;42.646;23.096;2023-03-23T04:22:50;92090.25;;;5.32;62.09
61963;BME280;47927;42.646;23.096;2023-03-23T04:25:19;92091.81;;;5.21;62.56
61963;BME280;47927;42.646;23.096;2023-03-23T04:27:51;92090.25;;;5.44;61.62
61963;BME280;47927;42.646;23.096;2023-03-23T04:30:28;92075.72;;;4.99;62.48
61963;BME280;47927;42.646;23.096;2023-03-23T04:33:09;92073.41;;;4.57;64.57
61963;BME280;47927;42.646;23.096;2023-03-23T04:35:42;92097.91;;;4.64;64.13
61963;BME280;47927;42.646;23.096;2023-03-23T04:38:29;92098.28;;;5.02;64.21
61963;BME280;47927;42.646;23.096;2023-03-23T04:41:02;92101.88;;;5.38;62.57
61963;BME280;47927;42.646;23.096;2023-03-23T04:43:58;92100.41;;;5.65;60.67
61963;BME280;47927;42.646;23.096;2023-03-23T04:46:45;92102.22;;;5.65;60.02
61963;BME280;47927;42.646;23.096;2023-03-23T04:49:15;92103.81;;;5.69;58.69
61963;BME280;47927;42.646;23.096;2023-03-23T04:51:47;92107.59;;;5.72;58.26
61963;BME280;47927;42.646;23.096;2023-03-23T04:54:40;92104.38;;;6.19;57.85
61963;BME280;47927;42.646;23.096;2023-03-23T04:57:05;92113.31;;;6.37;56.21
61963;BME280;47927;42.646;23.096;2023-03-23T04:59:34;92094.97;;;5.70;59.63
61963;BME280;47927;42.646;23.096;2023-03-23T05:02:06;92121.59;;;5.99;58.30
61963;BME280;47927;42.646;23.096;2023-03-23T05:04:32;92112.84;;;5.76;59.20
61963;BME280;47927;42.646;23.096;2023-03-23T05:07:07;92119.78;;;5.87;58.72
61963;BME280;47927;42.646;23.096;2023-03-23T05:09:38;92129.47;;;6.19;58.52
61963;BME280;47927;42.646;23.096;2023-03-23T05:12:09;92131.13;;;6.27;58.08
61963;BME280;47927;42.646;23.096;2023-03-23T05:14:45;92132.97;;;6.26;58.90
61963;BME280;47927;42.646;23.096;2023-03-23T05:17:14;92124.47;;;6.10;59.12
61963;BME280;47927;42.646;23.096;2023-03-23T05:19:43;92143.16;;;6.19;59.92
61963;BME280;47927;42.646;23.096;2023-03-23T05:22:29;92129.22;;;6.24;60.21
61963;BME280;47927;42.646;23.096;2023-03-23T05:25:00;92131.56;;;6.45;59.88
61963;BME280;47927;42.646;23.096;2023-03-23T05:27:29;92145.34;;;6.65;59.75
61963;BME280;47927;42.646;23.096;2023-03-23T05:29:59;92138.91;;;6.74;59.45
61963;BME280;47927;42.646;23.096;2023-03-23T05:32:27;92145.16;;;6.26;60.62
61963;BME280;47927;42.646;23.096;2023-03-23T05:35:03;92149.53;;;6.53;60.01
61963;BME280;47927;42.646;23.096;2023-03-23T05:37:29;92091.06;;;6.36;60.35
61963;BME280;47927;42.646;23.096;2023-03-23T05:40:05;92155.63;;;6.61;59.66
61963;BME280;47927;42.646;23.096;2023-03-23T05:42:39;92148.50;;;6.90;59.48
61963;BME280;47927;42.646;23.096;2023-03-23T05:45:14;92163.22;;;6.85;58.13
61963;BME280;47927;42.646;23.096;2023-03-23T05:47:41;92160.50;;;7.14;58.25
61963;BME280;47927;42.646;23.096;2023-03-23T05:50:11;92154.66;;;7.52;56.82
61963;BME280;47927;42.646;23.096;2023-03-23T05:52:38;92166.53;;;7.72;55.62
61963;BME280;47927;42.646;23.096;2023-03-23T05:55:08;92151.41;;;7.74;55.37
61963;BME280;47927;42.646;23.096;2023-03-23T05:57:37;92165.88;;;7.40;57.25
61963;BME280;47927;42.646;23.096;2023-03-23T06:00:06;92172.22;;;7.78;55.65
61963;BME280;47927;42.646;23.096;2023-03-23T06:02:48;92170.81;;;9.38;54.13
61963;BME280;47927;42.646;23.096;2023-03-23T06:05:24;92159.91;;;10.23;54.58
61963;BME280;47927;42.646;23.096;2023-03-23T06:07:53;92152.38;;;10.89;49.75
61963;BME280;47927;42.646;23.096;2023-03-23T06:10:19;92160.19;;;11.40;48.82
61963;BME280;47927;42.646;23.096;2023-03-23T06:12:52;92160.25;;;11.55;50.00
61963;BME280;47927;42.646;23.096;2023-03-23T06:15:28;92167.06;;;11.77;48.39
61963;BME280;47927;42.646;23.096;2023-03-23T06:18:00;92161.50;;;11.75;47.97
61963;BME280;47927;42.646;23.096;2023-03-23T06:20:33;92155.78;;;11.55;48.48
61963;BME280;47927;42.646;23.096;2023-03-23T06:23:09;92164.66;;;11.44;48.19
61963;BME280;47927;42.646;23.096;2023-03-23T06:25:35;92167.72;;;10.98;50.42
61963;BME280;47927;42.646;23.096;2023-03-23T06:28:01;92160.59;;;10.94;49.89
61963;BME280;47927;42.646;23.096;2023-03-23T06:30:26;92176.84;;;9.46;52.41
61963;BME280;47927;42.646;23.096;2023-03-23T06:32:53;92159.50;;;9.53;53.49
61963;BME280;47927;42.646;23.096;2023-03-23T06:35:32;92172.72;;;8.92;54.83
61963;BME280;47927;42.646;23.096;2023-03-23T06:38:12;92161.53;;;9.37;54.45
61963;BME280;47927;42.646;23.096;2023-03-23T06:40:54;92178.56;;;9.61;54.57
61963;BME280;47927;42.646;23.096;2023-03-23T06:43:23;92176.66;;;9.88;53.90
61963;BME280;47927;42.646;23.096;2023-03-23T06:46:09;92182.84;;;9.76;53.47
61963;BME280;47927;42.646;23.096;2023-03-23T06:48:41;92188.25;;;9.64;55.91
61963;BME280;47927;42.646;23.096;2023-03-23T06:51:09;92191.19;;;9.93;55.30
61963;BME280;47927;42.646;23.096;2023-03-23T06:53:40;92190.16;;;9.97;54.16
61963;BME280;47927;42.646;23.096;2023-03-23T06:56:13;92185.44;;;10.10;53.45
61963;BME280;47927;42.646;23.096;2023-03-23T06:58:41;92178.22;;;10.64;53.15
61963;BME280;47927;42.646;23.096;2023-03-23T07:01:08;92178.94;;;11.60;53.17
61963;BME280;47927;42.646;23.096;2023-03-23T07:03:44;92183.41;;;13.80;46.24
61963;BME280;47927;42.646;23.096;2023-03-23T07:06:12;92181.88;;;15.33;45.00
61963;BME280;47927;42.646;23.096;2023-03-23T07:08:46;92186.28;;;18.02;39.23
61963;BME280;47927;42.646;23.096;2023-03-23T07:11:17;92188.97;;;19.27;36.42
61963;BME280;47927;42.646;23.096;2023-03-23T07:13:43;92183.16;;;20.39;33.52
61963;BME280;47927;42.646;23.096;2023-03-23T07:16:09;92199.16;;;17.96;36.83
61963;BME280;47927;42.646;23.096;2023-03-23T07:18:37;92192.03;;;18.36;37.86
61963;BME280;47927;42.646;23.096;2023-03-23T07:21:04;92194.16;;;18.61;35.43
61963;BME280;47927;42.646;23.096;2023-03-23T07:23:31;92196.06;;;20.37;33.12
61963;BME280;47927;42.646;23.096;2023-03-23T07:26:01;92198.59;;;21.47;30.91
61963;BME280;47927;42.646;23.096;2023-03-23T07:28:35;92198.44;;;22.77;30.22
61963;BME280;47927;42.646;23.096;2023-03-23T07:31:11;92202.50;;;24.08;27.88
61963;BME280;47927;42.646;23.096;2023-03-23T07:33:37;92202.13;;;25.31;26.37
61963;BME280;47927;42.646;23.096;2023-03-23T07:36:03;92192.81;;;25.60;26.53
61963;BME280;47927;42.646;23.096;2023-03-23T07:38:29;92195.84;;;26.99;24.47
61963;BME280;47927;42.646;23.096;2023-03-23T07:40:57;92183.53;;;26.87;25.45
61963;BME280;47927;42.646;23.096;2023-03-23T07:43:24;92207.56;;;28.07;22.42
61963;BME280;47927;42.646;23.096;2023-03-23T07:45:52;92208.56;;;27.89;23.68
61963;BME280;47927;42.646;23.096;2023-03-23T07:48:18;92203.56;;;27.26;23.75
61963;BME280;47927;42.646;23.096;2023-03-23T07:50:44;92209.97;;;28.46;22.46
61963;BME280;47927;42.646;23.096;2023-03-23T07:53:12;92212.88;;;26.42;23.34
61963;BME280;47927;42.646;23.096;2023-03-23T07:55:41;92219.19;;;24.36;26.14
61963;BME280;47927;42.646;23.096;2023-03-23T07:58:23;92215.09;;;24.44;27.28
61963;BME280;47927;42.646;23.096;2023-03-23T08:00:53;92210.69;;;22.30;30.72
61963;BME280;47927;42.646;23.096;2023-03-23T08:03:21;92216.09;;;23.33;27.86
61963;BME280;47927;42.646;23.096;2023-03-23T08:05:57;92209.50;;;26.71;24.57
61963;BME280;47927;42.646;23.096;2023-03-23T08:08:47;92213.56;;;26.96;24.08
61963;BME280;47927;42.646;23.096;2023-03-23T08:11:31;92213.91;;;25.49;25.27
61963;BME280;47927;42.646;23.096;2023-03-23T08:14:26;92217.53;;;25.36;25.95
61963;BME280;47927;42.646;23.096;2023-03-23T08:17:04;92233.09;;;23.85;26.22
61963;BME280;47927;42.646;23.096;2023-03-23T08:19:42;92231.03;;;23.39;24.82
61963;BME280;47927;42.646;23.096;2023-03-23T08:22:27;92218.19;;;22.75;26.52
61963;BME280;47927;42.646;23.096;2023-03-23T08:25:26;92214.94;;;21.93;27.99
61963;BME280;47927;42.646;23.096;2023-03-23T08:28:20;92229.28;;;24.60;25.12
61963;BME280;47927;42.646;23.096;2023-03-23T08:31:09;92219.38;;;24.23;23.30
61963;BME280;47927;42.646;23.096;2023-03-23T08:33:52;92214.22;;;23.42;24.34
61963;BME280;47927;42.646;23.096;2023-03-23T08:36:37;92221.03;;;22.59;25.25
61963;BME280;47927;42.646;23.096;2023-03-23T08:39:21;92221.59;;;22.76;23.91
61963;BME280;47927;42.646;23.096;2023-03-23T08:42:17;92230.66;;;21.74;25.54
61963;BME280;47927;42.646;23.096;2023-03-23T08:44:43;92231.25;;;22.61;24.11
61963;BME280;47927;42.646;23.096;2023-03-23T08:47:28;92223.66;;;24.02;22.92
61963;BME280;47927;42.646;23.096;2023-03-23T08:50:14;92228.25;;;24.66;23.42
61963;BME280;47927;42.646;23.096;2023-03-23T08:53:06;92233.41;;;24.15;22.32
61963;BME280;47927;42.646;23.096;2023-03-23T08:55:48;92233.09;;;22.51;24.38
61963;BME280;47927;42.646;23.096;2023-03-23T08:58:34;92228.84;;;22.32;25.00
61963;BME280;47927;42.646;23.096;2023-03-23T09:01:29;92218.94;;;24.43;23.11
61963;BME280;47927;42.646;23.096;2023-03-23T09:04:16;92219.03;;;25.37;22.95
61963;BME280;47927;42.646;23.096;2023-03-23T09:07:05;92223.69;;;26.77;21.05
61963;BME280;47927;42.646;23.096;2023-03-23T09:09:31;92220.97;;;27.52;20.46
61963;BME280;47927;42.646;23.096;2023-03-23T09:11:59;92217.38;;;27.55;20.58
61963;BME280;47927;42.646;23.096;2023-03-23T09:14:25;92221.56;;;25.89;20.63
61963;BME280;47927;42.646;23.096;2023-03-23T09:16:50;92212.53;;;27.09;20.57
61963;BME280;47927;42.646;23.096;2023-03-23T09:19:16;92213.63;;;27.67;20.43
61963;BME280;47927;42.646;23.096;2023-03-23T09:21:42;92211.59;;;28.17;20.20
61963;BME280;47927;42.646;23.096;2023-03-23T09:24:08;92184.50;;;27.04;21.23
61963;BME280;47927;42.646;23.096;2023-03-23T09:26:34;92192.84;;;26.23;20.24
61963;BME280;47927;42.646;23.096;2023-03-23T09:29:00;92215.59;;;23.56;25.12
61963;BME280;47927;42.646;23.096;2023-03-23T09:31:25;92195.63;;;24.81;22.77
61963;BME280;47927;42.646;23.096;2023-03-23T09:33:54;92206.09;;;25.02;23.07
61963;BME280;47927;42.646;23.096;2023-03-23T09:36:21;92203.38;;;24.51;22.92
61963;BME280;47927;42.646;23.096;2023-03-23T09:38:50;92200.50;;;25.58;22.18
61963;BME280;47927;42.646;23.096;2023-03-23T09:44:17;92201.75;;;24.26;23.46
61963;BME280;47927;42.646;23.096;2023-03-23T09:47:17;92202.44;;;25.81;22.78
61963;BME280;47927;42.646;23.096;2023-03-23T09:52:55;92202.22;;;24.33;21.77
61963;BME280;47927;42.646;23.096;2023-03-23T09:55:22;92189.34;;;23.86;22.84
61963;BME280;47927;42.646;23.096;2023-03-23T09:58:08;92191.44;;;24.46;23.09
61963;BME280;47927;42.646;23.096;2023-03-23T10:01:07;92193.41;;;25.31;21.79
61963;BME280;47927;42.646;23.096;2023-03-23T10:03:39;92195.72;;;24.25;23.86
61963;BME280;47927;42.646;23.096;2023-03-23T10:06:12;92194.00;;;25.59;21.94
61963;BME280;47927;42.646;23.096;2023-03-23T10:08:47;92195.97;;;25.49;21.66
61963;BME280;47927;42.646;23.096;2023-03-23T10:17:37;92197.72;;;23.66;24.06
61963;BME280;47927;42.646;23.096;2023-03-23T10:25:52;92185.69;;;21.10;27.20
61963;BME280;47927;42.646;23.096;2023-03-23T10:28:34;92181.56;;;22.17;25.38
61963;BME280;47927;42.646;23.096;2023-03-23T10:31:00;92190.38;;;20.10;27.39
61963;BME280;47927;42.646;23.096;2023-03-23T10:33:46;92203.22;;;18.40;29.80
61963;BME280;47927;42.646;23.096;2023-03-23T10:36:34;92185.44;;;20.24;28.26
61963;BME280;47927;42.646;23.096;2023-03-23T10:39:17;92181.66;;;22.14;26.51
61963;BME280;47927;42.646;23.096;2023-03-23T10:41:44;92171.84;;;23.66;25.16
61963;BME280;47927;42.646;23.096;2023-03-23T10:44:21;92196.72;;;22.61;24.03
61963;BME280;47927;42.646;23.096;2023-03-23T10:55:10;92165.59;;;22.61;24.76
61963;BME280;47927;42.646;23.096;2023-03-23T10:57:40;92172.41;;;20.46;26.40
61963;BME280;47927;42.646;23.096;2023-03-23T11:00:20;92173.16;;;20.18;26.90
61963;BME280;47927;42.646;23.096;2023-03-23T11:03:22;92167.03;;;21.74;26.51
61963;BME280;47927;42.646;23.096;2023-03-23T11:05:51;92174.78;;;22.69;25.11
61963;BME280;47927;42.646;23.096;2023-03-23T11:08:21;92168.09;;;21.04;26.30
61963;BME280;47927;42.646;23.096;2023-03-23T11:10:52;92160.84;;;19.20;28.26
61963;BME280;47927;42.646;23.096;2023-03-23T11:13:21;92163.91;;;18.30;30.33
61963;BME280;47927;42.646;23.096;2023-03-23T11:15:48;92170.00;;;18.07;32.64
61963;BME280;47927;42.646;23.096;2023-03-23T11:18:38;92162.66;;;19.23;30.31
61963;BME280;47927;42.646;23.096;2023-03-23T11:21:05;92150.94;;;19.86;28.32
61963;BME280;47927;42.646;23.096;2023-03-23T11:23:37;92149.06;;;18.92;28.98
61963;BME280;47927;42.646;23.096;2023-03-23T11:26:30;92164.25;;;17.68;31.75
61963;BME280;47927;42.646;23.096;2023-03-23T11:29:13;92158.53;;;17.73;31.67
61963;BME280;47927;42.646;23.096;2023-03-23T11:31:46;92156.75;;;18.47;30.08
61963;BME280;47927;42.646;23.096;2023-03-23T11:34:21;92149.91;;;17.93;31.33
61963;BME280;47927;42.646;23.096;2023-03-23T11:41:53;92144.53;;;18.73;30.93
61963;BME280;47927;42.646;23.096;2023-03-23T11:44:22;92125.03;;;19.03;30.91
61963;BME280;47927;42.646;23.096;2023-03-23T11:47:08;92145.00;;;16.77;32.56
61963;BME280;47927;42.646;23.096;2023-03-23T11:49:50;92119.94;;;17.20;32.99
61963;BME280;47927;42.646;23.096;2023-03-23T11:55:14;92135.00;;;18.79;30.25
61963;BME280;47927;42.646;23.096;2023-03-23T11:57:41;92121.34;;;18.64;30.31
61963;BME280;47927;42.646;23.096;2023-03-23T12:00:13;92130.91;;;17.38;32.09
61963;BME280;47927;42.646;23.096;2023-03-23T12:06:06;92131.63;;;16.92;33.52
61963;BME280;47927;42.646;23.096;2023-03-23T12:09:10;92125.19;;;16.69;33.61
61963;BME280;47927;42.646;23.096;2023-03-23T12:20:50;92116.16;;;16.97;32.58
61963;BME280;47927;42.646;23.096;2023-03-23T12:55:39;92098.44;;;16.47;34.90
61963;BME280;47927;42.646;23.096;2023-03-23T12:58:37;92100.97;;;15.97;36.04
61963;BME280;47927;42.646;23.096;2023-03-23T13:08:53;92090.22;;;16.45;35.13
61963;BME280;47927;42.646;23.096;2023-03-23T13:11:26;92082.41;;;16.11;35.43
61963;BME280;47927;42.646;23.096;2023-03-23T13:13:56;92090.38;;;16.04;35.15
61963;BME280;47927;42.646;23.096;2023-03-23T13:16:38;92075.81;;;16.53;34.88
61963;BME280;47927;42.646;23.096;2023-03-23T13:24:26;92055.03;;;15.06;36.76
61963;BME280;47927;42.646;23.096;2023-03-23T13:26:53;92074.03;;;16.20;35.60
61963;BME280;47927;42.646;23.096;2023-03-23T13:29:24;92078.78;;;16.55;34.83
61963;BME280;47927;42.646;23.096;2023-03-23T13:31:51;92074.88;;;16.13;35.63
61963;BME280;47927;42.646;23.096;2023-03-23T13:34:25;92073.19;;;16.26;35.39
61963;BME280;47927;42.646;23.096;2023-03-23T13:47:25;92070.81;;;14.53;38.79
61963;BME280;47927;42.646;23.096;2023-03-23T13:49:57;92079.47;;;14.95;37.55
61963;BME280;47927;42.646;23.096;2023-03-23T14:03:38;92066.16;;;15.89;35.44
61963;BME280;47927;42.646;23.096;2023-03-23T14:06:15;92069.09;;;15.26;35.23
61963;BME280;47927;42.646;23.096;2023-03-23T14:09:06;92061.84;;;14.96;36.07
61963;BME280;47927;42.646;23.096;2023-03-23T14:11:32;92070.88;;;15.33;36.21
61963;BME280;47927;42.646;23.096;2023-03-23T14:14:04;92063.78;;;15.64;34.78
61963;BME280;47927;42.646;23.096;2023-03-23T14:16:42;92056.53;;;15.79;35.25
61963;BME280;47927;42.646;23.096;2023-03-23T14:19:23;92051.75;;;16.55;33.40
61963;BME280;47927;42.646;23.096;2023-03-23T14:21:53;92052.97;;;15.92;34.90
61963;BME280;47927;42.646;23.096;2023-03-23T14:24:28;92054.88;;;15.23;35.13
61963;BME280;47927;42.646;23.096;2023-03-23T14:27:08;92054.44;;;14.87;35.72
61963;BME280;47927;42.646;23.096;2023-03-23T14:29:34;92048.47;;;14.83;35.83
61963;BME280;47927;42.646;23.096;2023-03-23T14:32:00;92049.09;;;15.36;35.95
61963;BME280;47927;42.646;23.096;2023-03-23T14:34:29;92043.25;;;15.55;34.54
61963;BME280;47927;42.646;23.096;2023-03-23T14:36:57;92039.41;;;15.98;33.12
61963;BME280;47927;42.646;23.096;2023-03-23T14:39:27;92052.38;;;16.39;33.98
61963;BME280;47927;42.646;23.096;2023-03-23T14:41:55;92057.81;;;15.25;34.52
61963;BME280;47927;42.646;23.096;2023-03-23T14:44:26;92058.38;;;14.65;36.26
61963;BME280;47927;42.646;23.096;2023-03-23T14:46:54;92052.97;;;15.24;35.26
61963;BME280;47927;42.646;23.096;2023-03-23T14:49:28;92059.97;;;15.34;34.65
61963;BME280;47927;42.646;23.096;2023-03-23T14:51:55;92040.63;;;15.55;34.55
61963;BME280;47927;42.646;23.096;2023-03-23T14:54:23;92057.53;;;14.75;35.66
61963;BME280;47927;42.646;23.096;2023-03-23T14:56:50;92051.09;;;14.83;35.64
61963;BME280;47927;42.646;23.096;2023-03-23T14:59:16;92044.25;;;14.44;35.47
61963;BME280;47927;42.646;23.096;2023-03-23T15:02:00;92055.16;;;14.91;35.17
61963;BME280;47927;42.646;23.096;2023-03-23T15:04:27;92042.84;;;14.85;35.69
61963;BME280;47927;42.646;23.096;2023-03-23T15:07:00;92039.03;;;14.93;36.26
61963;BME280;47927;42.646;23.096;2023-03-23T15:09:27;92040.88;;;15.34;35.53
61963;BME280;47927;42.646;23.096;2023-03-23T15:11:56;92031.75;;;15.45;35.86
61963;BME280;47927;42.646;23.096;2023-03-23T15:14:29;92033.69;;;15.41;35.05
61963;BME280;47927;42.646;23.096;2023-03-23T15:16:56;92038.19;;;15.41;34.81
61963;BME280;47927;42.646;23.096;2023-03-23T15:19:25;92036.50;;;15.20;35.50
61963;BME280;47927;42.646;23.096;2023-03-23T15:21:57;92034.25;;;15.22;35.04
61963;BME280;47927;42.646;23.096;2023-03-23T15:24:31;92030.41;;;14.92;35.49
61963;BME280;47927;42.646;23.096;2023-03-23T15:29:32;92034.13;;;15.67;35.13
61963;BME280;47927;42.646;23.096;2023-03-23T15:31:57;92041.16;;;16.08;33.99
61963;BME280;47927;42.646;23.096;2023-03-23T15:34:24;92042.53;;;15.85;34.68
61963;BME280;47927;42.646;23.096;2023-03-23T15:36:55;92033.59;;;15.83;34.62
61963;BME280;47927;42.646;23.096;2023-03-23T15:39:21;92040.50;;;15.35;34.82
61963;BME280;47927;42.646;23.096;2023-03-23T15:41:49;92046.75;;;15.07;35.66
61963;BME280;47927;42.646;23.096;2023-03-23T15:44:28;92048.09;;;15.26;35.86